Airfield :
LOGIN :

Register | Disclaimer

   EN    FR    IT 

 










Legend :    VFR   Marginal VFR   IFR   Intensive IFR   Very Intensive IFR
Visi :
Ceiling :
>= 8 km
>= 3000ft
5 to 8 km
1000 to 3000 ft
1500m to 5 km
500 to 1000 ft
800 to 1500m
200 to 500 ft
< 800m
< 200 ft
Symbols :   Thunderstorms  Fog  Heavy snow  Heavy precipitations  Wind > 20 kt
SIGMETs :     Misc.  Thunderstorms  Icing  Turbulence  Mountain Waves  Volcanic Ashes






- Airport Elevation : 124 ft
- IATA code : NHT


EGWU - RAF Northolt

CURRENT METAR :
  • 130850Z 04009KT 8000 HZ FEW045 SCT080 BKN130 22/18 Q1012 NOSIG RMK BLU BLU

EXPIRED METARs :
  • 130750Z 02009KT 7000 -RA SCT045 BKN090 20/18 Q1012 BECMG 9000 HZ RMK WHT BECMG BLU
  • 130720Z 01007KT 7000 -RA SCT045 SCT110 BKN160 20/18 Q1012 RETS BECMG 9000 HZ RMK WHT BECMG BLU
  • 130655Z 06004KT 7000 TSRA SCT045 SCT120CB BKN160 20/18 Q1013 BECMG 9000 NSW RMK WHT BECMG BLU

TAF TAF EGWU
Valid from the 13 at 09:00 until the 14 at 03:00 UTC


130736Z 1309/1403 04008KT 7000 HZ SCT045
BECMG 1309/1312 9999 NSW
PROB30
TEMPO 1309/1314 4000 TSRA BKN090CB
PROB30
TEMPO 1314/1403 VRB15G25KT 3000 +TSRA BKN040CB
BECMG 1400/1403 BKN007



MET'MAP, your aeronautical weather chart ! - Copyright ORBIFLY December 2007 - Disclaimer

ORBIFLY MET'MAP TEAM :

Programming & Development : Alexandra Zaïnal
Concept & original design : Baudouin d'Aumeries
Assistance for programming : Marc-Olivier Méhu
Technical & hardware support : Manuel Goepfert

Contact : metmap@orbifly.com




SOURCES & CREDITS :

   NOAA